首页
METAR-TAF:

METAR-TAF

机场 :

苏丹依斯迈布特拉机场

哥打巴鲁, 马来西亚

纬度: 06-10N, 经度: 102-17E, 海拔: 5米

当前天气观测

该预报发布于43分钟前的23:00 UTC
风速3节,风向多变
温度 27°C
湿度 84%
气压 1008 hPa
能见度10公里或以上
少量云层高于2000英尺

METAR: WMKC 282300Z VRB03KT 9999 FEW020 27/24 Q1008

时间: 07:43 (23:43 UTC)

预报

该预报发布于43分钟前的23:00 UTC
预报有效从29日的 00点(UTC)到 30日的 00点(UTC)
风速8节,风向东转东北
能见度10公里或以上
少量云层高于1800英尺

TAF: WMKC 282300Z 2900/3000 07008KT 9999 FEW018

超过4000个机场的气象观测和天气预报(METAR&TAF报告)。

可查询的气象台以黄色和红色小点在地图上表示。

将鼠标移到小点上方,可查看气象台名称。

然后点击查看天气观测和预报。

如需切换地图:点击带黑十字的绿色按钮放大地图;点击带横线的绿色按钮缩小地图;或者点击绿色箭头查看邻近地区的地图。


METAR-TAF: